首页
METAR-TAF:

METAR-TAF

机场 :

因纽维克, 西北特區, 加拿大

纬度: 68-18N, 经度: 133-29W, 海拔: 59米

当前天气观测

该预报发布于16分钟前的12:00 UTC
风速7节,风向东转东北
温度 -9°C
湿度 85%
气压 1013 hPa
能見度: 24.1公里
散云层高于4100英尺
多云层高于7700英尺

METAR: CYEV 201200Z 07007KT 15SM SCT041 BKN077 M09/M11 A2991 RMK SC3AC3 SLP138

时间: 06:16 (12:16 UTC)

预报

该预报发布于5小时和25分钟前的06:51 UTC
预报有效从20日的 07点(UTC)到 20日的 19点(UTC)
风速8节,风向
能見度: 10公里
少量云层高于3000英尺
散云层高于7000英尺
短暂存在
从 20日的 07点(UTC)到 20日的 13点(UTC)
多云层高于3000英尺
从 20日的 1300点(UTC)
风速8节,风向
能見度: 10公里
散云层高于2000英尺
多云层高于6000英尺
短暂存在
从 20日的 13点(UTC)到 20日的 19点(UTC)
多云层高于2000英尺

TAF: CYEV 200651Z 2007/2019 08008KT P6SM FEW030 SCT070 TEMPO 2007/2013 BKN030 FM201300 08008KT P6SM SCT020 BKN060 TEMPO 2013/2019 BKN020 RMK NXT FCST BY 201300Z

超过4000个机场的气象观测和天气预报(METAR&TAF报告)。

可查询的气象台以黄色和红色小点在地图上表示。

将鼠标移到小点上方,可查看气象台名称。

然后点击查看天气观测和预报。

如需切换地图:点击带黑十字的绿色按钮放大地图;点击带横线的绿色按钮缩小地图;或者点击绿色箭头查看邻近地区的地图。


METAR-TAF: